Wilmington, DE

4:03 PM EST on January 26, 2015 (GMT -0500)
DEOS Shellpot Creek Wilmington DE USA | Change Station
CLOSE
Current Station
Personal Weather Station
Location: Greenville, DE
Elevation: 9 ft
Nearby Weather Stations
Active Advisory: Winter Weather Advisory Active Notice: Public Information Statement

Elev 9 ft 39.73 °N, 75.52 °W | Updated 53 minutes ago

Snow
Snow
28 °F
Feels Like 17 °F
N
13
Wind Variable Wind from NE
Gusts 22.0 mph

Today
High -- | Low -- °F
--% Chance of Precip.
Yesterday
High -- | Low -- °F
Precip. -- in
7:15 AM 5:14 PM
Waxing Crescent, 46% visible
Pressure 29.75 in
Visibility 3.0 miles
Clouds Mostly Cloudy 1700 ft
Overcast 5000 ft
Windchill 17 °F
Dew Point 24 °F
Humidity 82%
Rainfall -999.00 in
Snow Depth Not available.
UV 0 out of 12
Pollen .10 out of 12
Air Quality Not available.
Flu Activity Not available.
METAR KILG 262051Z 04015G24KT 3SM -SN BKN017 OVC050 M02/M05 A2975 RMK AO2 PK WND 06027/2030 UPE41SNB41 SLP075 P0000 60000 T10171050 56013

More Conditions Fewer Conditions

Pressure 29.75 in
Visibility 3.0 miles
Clouds Mostly Cloudy 1700 ft
Overcast 5000 ft
Windchill 17 °F
Dew Point 24 °F
Humidity 82%
Rainfall -999.00 in
Snow Depth Not available.
UV 0 out of 12
Pollen .10 out of 12
Air Quality Not available.
Flu Activity Not available.
METAR KILG 262051Z 04015G24KT 3SM -SN BKN017 OVC050 M02/M05 A2975 RMK AO2 PK WND 06027/2030 UPE41SNB41 SLP075 P0000 60000 T10171050 56013

More Conditions Fewer Conditions

10-Day Weather Forecast

Almanac

Astronomy

Jan. 26, 2015 Rise Set
Actual Time
Civil Twilight
Nautical Twilight
Astronomical Twilight
Moon
Length of Visible Light
Length of Day
Tomorrow will be .
, % of the Moon is Illuminated

Today's Extremes

State Highs State Lows

Community

WunderPhotos

Upload Photos

1,790,361 photos uploaded!

WunderBlogs® & News

Nearby

Air Quality

  Air Quality AQ Index Pollutant
Not available.

Snow Depth

Station Depth Elevation

Earthquake Activity

City Distance Mag. Time & Date
Minimum magnitude displayed is 2.5.

Coastal Water Temperatures

Place Temperature

Nearby Weather Stations